Darstellungsparameter: Aktuell verwendete Einstellungen:
Skalierung der Graphiken ... ?
xyx+y,   Skalierungsfaktor:      Skalierung: Modus: x, Faktor: 1
Darstellungszeitraum ... ?
Vom - - bis: - -   Zeitraum: 07.11.2010 - 13.11.2010
Min/Max/Avg-Anzeige ... ?
Zeige MMA aktuell
Zeige MMA Monat
Zeige MMA alles
Zeige --A aktuell
Zeige --A Monat
Zeige --A alles
Keine MMA-Anzeige
MMA:
Average (ber die Originaldaten)
MMA-Basis: 07.11.2010 - 13.11.2010
Quicknavigation für Darstellung... ?
Tage:      1T, 2T, 3T, 5T -1T -2T -3T -5T +1T +2T +3T +5T
Wochen: 1W, 2W, 3W -1W -2W -3W +1W +2W +3W
Monate: 1M, 3M, 6M -1M -3M -6M +1M +3M +6M
Jahre:    1J, 3J, 5J, 10J -1J -3J -5J -10J +1J +3J +5J +10J
Nutze für die Darstellung ... ?
Originaldaten oder Mittelwerte auf ...
Stundenbasis Tagesbasis Wochenbasis
Monatsbasis Jahresbasis      Datenbasis: Original-Daten
Darstellen als:
Statistik (Auto) Statistik J:M      Darstellung:
Zur Graphik,    zurück zur Übersicht aller Sensoren.
 
Tabellarische Datenbersicht: ?
 
Sensor: Nr:Datum:Temp:Abs-Feuchte:Windchill:Wind:
Aussen-T/F 1 07-11-2010 00:08:03 7.2 C 7.3 g/m*3 7.2 C 0 km/h
2 07-11-2010 00:20:03 7.2 C 7.3 g/m*3 7.2 C 0 km/h
3 07-11-2010 00:32:03 7.2 C 7.3 g/m*3 7.2 C 0 km/h
4 07-11-2010 00:44:03 7.3 C 7.35 g/m*3 7.3 C 0 km/h
5 07-11-2010 00:56:03 7.2 C 7.3 g/m*3 7.2 C 0 km/h
6 07-11-2010 01:08:03 7.3 C 7.35 g/m*3 7.3 C 0 km/h
7 07-11-2010 01:20:03 7.3 C 7.35 g/m*3 7.3 C 0 km/h
8 07-11-2010 01:32:03 7.2 C 7.3 g/m*3 7.2 C 0 km/h
9 07-11-2010 01:44:03 7.1 C 7.25 g/m*3 7.1 C 0 km/h
10 07-11-2010 01:56:03 7 C 7.21 g/m*3 7 C 0 km/h
11 07-11-2010 02:08:03 6.7 C 7.14 g/m*3 6.7 C 0 km/h
12 07-11-2010 02:20:03 6.7 C 7.14 g/m*3 6.7 C 0 km/h
13 07-11-2010 02:32:03 7 C 7.21 g/m*3 7 C 0 km/h
14 07-11-2010 02:44:03 7.2 C 7.38 g/m*3 7.2 C 0 km/h
15 07-11-2010 02:56:03 7.3 C 7.35 g/m*3 7.3 C 0 km/h
16 07-11-2010 03:08:03 7.3 C 7.35 g/m*3 7.3 C 0 km/h
17 07-11-2010 03:20:03 7.3 C 7.35 g/m*3 7.3 C 0 km/h
18 07-11-2010 03:32:04 7.3 C 7.43 g/m*3 7.3 C 0 km/h
19 07-11-2010 03:44:04 7.3 C 7.43 g/m*3 7.3 C 0 km/h
20 07-11-2010 03:56:04 7.3 C 7.43 g/m*3 7.3 C 0 km/h
21 07-11-2010 04:08:04 7.3 C 7.43 g/m*3 7.3 C 0 km/h
22 07-11-2010 04:20:04 7.2 C 7.38 g/m*3 7.2 C 0 km/h
23 07-11-2010 04:32:04 7.2 C 7.38 g/m*3 7.2 C 0 km/h
24 07-11-2010 04:44:04 7.2 C 7.3 g/m*3 7.2 C 0 km/h
25 07-11-2010 04:56:04 7 C 7.21 g/m*3 7 C 0 km/h
Sensor: Nr:Datum:Temp:Abs-Feuchte:Windchill:Wind:
Aussen-T/F 26 07-11-2010 05:08:04 6.9 C 7.24 g/m*3 6.9 C 0 km/h
27 07-11-2010 05:20:04 6.8 C 7.19 g/m*3 6.8 C 0 km/h
28 07-11-2010 05:32:04 6.9 C 7.24 g/m*3 6.9 C 0 km/h
29 07-11-2010 05:44:04 6.8 C 7.19 g/m*3 6.8 C 0 km/h
30 07-11-2010 05:56:04 6.6 C 7.1 g/m*3 6.6 C 0 km/h
31 07-11-2010 06:08:04 6.4 C 7 g/m*3 6.4 C 0 km/h
32 07-11-2010 06:20:04 6.3 C 6.96 g/m*3 6.3 C 0 km/h
33 07-11-2010 06:32:04 6.4 C 7 g/m*3 6.4 C 0 km/h
34 07-11-2010 06:44:04 6.7 C 7.14 g/m*3 6.7 C 0 km/h
35 07-11-2010 06:56:04 6.6 C 7.1 g/m*3 6.6 C 0 km/h
36 07-11-2010 07:08:04 6.4 C 7 g/m*3 6.4 C 0 km/h
37 07-11-2010 07:20:04 6.7 C 7.14 g/m*3 6.7 C 0 km/h
38 07-11-2010 07:32:04 6.7 C 7.14 g/m*3 6.7 C 0 km/h
39 07-11-2010 07:44:05 6.8 C 7.19 g/m*3 6.8 C 0 km/h
40 07-11-2010 07:56:05 6.9 C 7.24 g/m*3 6.9 C 0 km/h
41 07-11-2010 08:08:01 7 C 7.21 g/m*3 7 C 0 km/h
42 07-11-2010 08:20:02 7.1 C 7.25 g/m*3 7.1 C 0 km/h
43 07-11-2010 08:32:01 7.2 C 7.3 g/m*3 7.2 C 0 km/h
44 07-11-2010 08:44:01 7.2 C 7.3 g/m*3 7.2 C 0 km/h
45 07-11-2010 08:56:01 7.3 C 7.35 g/m*3 7.3 C 0 km/h
46 07-11-2010 09:08:01 7.4 C 7.48 g/m*3 7.4 C 0 km/h
47 07-11-2010 09:20:02 7.4 C 7.48 g/m*3 7.4 C 0 km/h
48 07-11-2010 09:32:01 7.5 C 7.52 g/m*3 7.5 C 0 km/h
49 07-11-2010 09:44:01 7.4 C 7.4 g/m*3 7.4 C 0 km/h
50 07-11-2010 09:56:01 7.6 C 7.49 g/m*3 7.6 C 0 km/h
Sensor: Nr:Datum:Temp:Abs-Feuchte:Windchill:Wind:
Aussen-T/F 51 07-11-2010 10:08:02 7.8 C 7.67 g/m*3 7.8 C 0 km/h
52 07-11-2010 10:20:01 7.7 C 7.62 g/m*3 7.7 C 0 km/h
53 07-11-2010 10:32:02 7.9 C 7.72 g/m*3 7.9 C 0 km/h
54 07-11-2010 10:44:02 7.8 C 7.67 g/m*3 7.8 C 0 km/h
55 07-11-2010 10:56:02 7.9 C 7.72 g/m*3 7.9 C 0 km/h
56 07-11-2010 11:08:01 7.9 C 7.64 g/m*3 7.9 C 0 km/h
57 07-11-2010 11:20:02 8 C 7.69 g/m*3 8 C 0 km/h
58 07-11-2010 11:32:02 8 C 7.61 g/m*3 8 C 0 km/h
59 07-11-2010 11:44:02 8 C 7.61 g/m*3 8 C 0 km/h
60 07-11-2010 11:56:02 8.4 C 7.8 g/m*3 8.4 C 0 km/h
61 07-11-2010 12:08:01 8.5 C 7.85 g/m*3 8.5 C 0 km/h
62 07-11-2010 12:20:02 9 C 8.02 g/m*3 9 C 0 km/h
63 07-11-2010 12:32:02 8.9 C 7.97 g/m*3 8.9 C 0 km/h
64 07-11-2010 12:44:02 8.6 C 7.82 g/m*3 8.6 C 0 km/h
65 07-11-2010 12:56:02 8.7 C 7.7 g/m*3 8.7 C 0 km/h
66 07-11-2010 13:08:02 8.8 C 7.75 g/m*3 8.8 C 0 km/h
67 07-11-2010 13:20:02 8.6 C 7.56 g/m*3 8.6 C 0 km/h
68 07-11-2010 13:32:02 8.4 C 7.38 g/m*3 8.4 C 0 km/h
69 07-11-2010 13:44:02 8.4 C 7.47 g/m*3 8.4 C 0 km/h
70 07-11-2010 13:56:02 8.2 C 7.37 g/m*3 8.2 C 0 km/h
71 07-11-2010 14:08:02 8.2 C 7.37 g/m*3 8.2 C 0 km/h
72 07-11-2010 14:20:02 8.2 C 7.37 g/m*3 8.2 C 0 km/h
73 07-11-2010 14:32:02 8.2 C 7.45 g/m*3 8.2 C 0 km/h
74 07-11-2010 14:44:02 8.4 C 7.55 g/m*3 8.4 C 0 km/h
75 07-11-2010 14:56:02 8.1 C 7.41 g/m*3 8.1 C 0 km/h
Sensor: Nr:Datum:Temp:Abs-Feuchte:Windchill:Wind:
Aussen-T/F 76 07-11-2010 15:08:02 7.7 C 7.22 g/m*3 7.7 C 0 km/h
77 07-11-2010 15:20:02 7.5 C 7.12 g/m*3 7.5 C 0 km/h
78 07-11-2010 15:32:02 7.6 C 7.25 g/m*3 7.6 C 0 km/h
79 07-11-2010 15:44:02 7.5 C 7.2 g/m*3 7.5 C 0 km/h
80 07-11-2010 15:56:02 7.2 C 7.06 g/m*3 7.2 C 0 km/h
81 07-11-2010 16:08:01 7.1 C 7.02 g/m*3 7.1 C 0 km/h
82 07-11-2010 16:20:01 6.8 C 6.96 g/m*3 6.8 C 0 km/h
83 07-11-2010 16:32:02 6.7 C 6.91 g/m*3 6.7 C 0 km/h
84 07-11-2010 16:44:02 6.7 C 6.91 g/m*3 6.7 C 0 km/h
85 07-11-2010 16:56:02 6.8 C 7.04 g/m*3 6.8 C 0 km/h
86 07-11-2010 17:08:02 6.8 C 7.04 g/m*3 6.8 C 0 km/h
87 07-11-2010 17:20:02 6.7 C 6.99 g/m*3 6.7 C 0 km/h
88 07-11-2010 17:32:02 6.8 C 7.04 g/m*3 6.8 C 0 km/h
89 07-11-2010 17:44:02 6.7 C 6.99 g/m*3 6.7 C 0 km/h
90 07-11-2010 17:56:02 6.8 C 7.04 g/m*3 6.8 C 0 km/h
91 07-11-2010 18:08:01 6.5 C 6.9 g/m*3 6.5 C 0 km/h
92 07-11-2010 18:20:02 6.7 C 6.99 g/m*3 6.7 C 0 km/h
93 07-11-2010 18:32:01 6.8 C 7.04 g/m*3 6.8 C 0 km/h
94 07-11-2010 18:44:01 6.7 C 6.99 g/m*3 6.7 C 0 km/h
95 07-11-2010 18:56:02 6.2 C 6.77 g/m*3 6.2 C 0 km/h
96 07-11-2010 19:08:01 6 C 6.68 g/m*3 6 C 0 km/h
97 07-11-2010 19:20:02 5.9 C 6.71 g/m*3 5.9 C 0 km/h
98 07-11-2010 19:32:01 5.7 C 6.62 g/m*3 5.7 C 0 km/h
99 07-11-2010 19:44:01 5.7 C 6.62 g/m*3 5.7 C 0 km/h
100 07-11-2010 19:56:02 5.3 C 6.45 g/m*3 5.3 C 0 km/h
Sensor: Nr:Datum:Temp:Abs-Feuchte:Windchill:Wind:
Aussen-T/F 101 07-11-2010 20:08:01 5.2 C 6.4 g/m*3 5.2 C 0 km/h
102 07-11-2010 20:20:02 5.2 C 6.4 g/m*3 5.2 C 0 km/h
103 07-11-2010 20:32:01 5.2 C 6.4 g/m*3 5.2 C 0 km/h
104 07-11-2010 20:44:01 5.2 C 6.4 g/m*3 5.2 C 0 km/h
105 07-11-2010 20:56:01 5.1 C 6.36 g/m*3 5.1 C 0 km/h
106 07-11-2010 21:08:01 5.1 C 6.36 g/m*3 5.1 C 0 km/h
107 07-11-2010 21:20:01 5.1 C 6.36 g/m*3 5.1 C 0 km/h
108 07-11-2010 21:32:01 5 C 6.32 g/m*3 5 C 0 km/h
109 07-11-2010 21:44:01 4.9 C 6.28 g/m*3 4.9 C 0 km/h
110 07-11-2010 21:56:01 4.8 C 6.3 g/m*3 4.8 C 0 km/h
111 07-11-2010 22:08:02 4.8 C 6.3 g/m*3 4.8 C 0 km/h
112 07-11-2010 22:21:03 5 C 6.32 g/m*3 5 C 0 km/h
113 07-11-2010 22:33:03 5 C 6.32 g/m*3 5 C 0 km/h
114 07-11-2010 22:45:03 4.9 C 6.35 g/m*3 4.9 C 0 km/h
115 07-11-2010 22:57:03 4.8 C 6.3 g/m*3 4.8 C 0 km/h
116 07-11-2010 23:09:03 4.7 C 6.26 g/m*3 4.7 C 0 km/h
117 07-11-2010 23:21:03 4.7 C 6.26 g/m*3 4.7 C 0 km/h
118 07-11-2010 23:33:03 4.7 C 6.26 g/m*3 4.7 C 0 km/h
119 07-11-2010 23:45:03 4.6 C 6.22 g/m*3 4.6 C 0 km/h
120 07-11-2010 23:57:03 4.5 C 6.11 g/m*3 4.5 C 0 km/h
121 08-11-2010 00:09:03 4.4 C 6.07 g/m*3 4.4 C 0 km/h
122 08-11-2010 00:21:03 4.1 C 5.95 g/m*3 4.1 C 0 km/h
123 08-11-2010 00:33:03 3.9 C 5.94 g/m*3 3.9 C 0 km/h
124 08-11-2010 00:45:03 3.8 C 5.9 g/m*3 3.8 C 0 km/h
125 08-11-2010 00:57:04 4 C 5.91 g/m*3 4 C 0 km/h
Sensor: Nr:Datum:Temp:Abs-Feuchte:Windchill:Wind:
Aussen-T/F 126 08-11-2010 01:09:04 4.1 C 5.95 g/m*3 4.1 C 0 km/h
127 08-11-2010 01:21:04 4.3 C 6.03 g/m*3 4.3 C 0 km/h
128 08-11-2010 01:33:04 4.3 C 6.03 g/m*3 4.3 C 0 km/h
129 08-11-2010 01:45:04 4.1 C 5.95 g/m*3 4.1 C 0 km/h
130 08-11-2010 01:57:04 3.8 C 5.9 g/m*3 3.8 C 0 km/h
131 08-11-2010 02:09:04 3.5 C 5.78 g/m*3 3.5 C 0 km/h
132 08-11-2010 02:21:04 3.9 C 5.94 g/m*3 3.9 C 0 km/h
133 08-11-2010 02:33:04 4.1 C 5.95 g/m*3 4.1 C 0 km/h
134 08-11-2010 02:45:04 4.3 C 6.03 g/m*3 4.3 C 0 km/h
135 08-11-2010 02:57:04 4.4 C 6.14 g/m*3 4.4 C 0 km/h
136 08-11-2010 03:09:04 4.5 C 6.18 g/m*3 4.5 C 0 km/h
137 08-11-2010 03:21:04 4.5 C 6.18 g/m*3 4.5 C 0 km/h
138 08-11-2010 03:33:04 4.5 C 6.18 g/m*3 4.5 C 0 km/h
139 08-11-2010 03:45:04 4.4 C 6.14 g/m*3 4.4 C 0 km/h
140 08-11-2010 03:57:04 4.4 C 6.14 g/m*3 4.4 C 0 km/h
141 08-11-2010 04:09:04 4.4 C 6.14 g/m*3 4.4 C 0 km/h
142 08-11-2010 04:21:04 4.4 C 6.14 g/m*3 4.4 C 0 km/h
143 08-11-2010 04:33:04 4.4 C 6.14 g/m*3 4.4 C 0 km/h
144 08-11-2010 04:45:04 4.4 C 6.14 g/m*3 4.4 C 0 km/h
145 08-11-2010 04:57:04 4.4 C 6.14 g/m*3 4.4 C 0 km/h
146 08-11-2010 05:09:05 4.5 C 6.18 g/m*3 4.5 C 0 km/h
147 08-11-2010 05:21:05 4.5 C 6.18 g/m*3 4.5 C 0 km/h
148 08-11-2010 05:33:05 4.6 C 6.22 g/m*3 4.6 C 0 km/h
149 08-11-2010 05:45:05 4.7 C 6.26 g/m*3 4.7 C 0 km/h
150 08-11-2010 05:57:05 4.7 C 6.26 g/m*3 4.7 C 0 km/h
Sensor: Nr:Datum:Temp:Abs-Feuchte:Windchill:Wind:
Aussen-T/F 151 08-11-2010 06:09:05 4.8 C 6.3 g/m*3 4.8 C 0 km/h
152 08-11-2010 06:21:05 4.8 C 6.3 g/m*3 4.8 C 0 km/h
153 08-11-2010 06:33:05 4.9 C 6.35 g/m*3 4.9 C 0 km/h
154 08-11-2010 06:45:05 4.9 C 6.35 g/m*3 4.9 C 0 km/h
155 08-11-2010 06:57:05 4.9 C 6.35 g/m*3 4.9 C 0 km/h
156 08-11-2010 07:09:05 4.8 C 6.3 g/m*3 4.8 C 0 km/h
157 08-11-2010 07:21:03 4.4 C 6.14 g/m*3 4.4 C 0 km/h
158 08-11-2010 07:33:02 4.6 C 6.22 g/m*3 4.6 C 0 km/h
159 08-11-2010 07:45:01 4.9 C 6.35 g/m*3 4.9 C 0 km/h
160 08-11-2010 07:57:01 5 C 6.32 g/m*3 5 C 0 km/h
161 08-11-2010 08:09:02 4.9 C 6.35 g/m*3 4.9 C 0 km/h
162 08-11-2010 08:21:01 5 C 6.32 g/m*3 5 C 0 km/h
163 08-11-2010 08:33:02 4.9 C 6.35 g/m*3 4.9 C 0 km/h
164 08-11-2010 08:45:02 4.9 C 6.35 g/m*3 4.9 C 0 km/h
165 08-11-2010 08:57:02 5.1 C 6.36 g/m*3 5.1 C 0 km/h
166 08-11-2010 09:09:02 5.4 C 6.49 g/m*3 5.4 C 0 km/h
167 08-11-2010 09:21:02 5.6 C 6.57 g/m*3 5.6 C 0 km/h
168 08-11-2010 09:33:02 6 C 6.68 g/m*3 6 C 0 km/h
169 08-11-2010 09:45:02 6 C 6.6 g/m*3 6 C 0 km/h
170 08-11-2010 09:57:02 6.2 C 6.55 g/m*3 6.2 C 0 km/h
171 08-11-2010 10:09:02 7.1 C 6.86 g/m*3 7.1 C 0 km/h
172 08-11-2010 10:21:02 6.9 C 6.54 g/m*3 6.9 C 0 km/h
173 08-11-2010 10:33:02 7 C 6.43 g/m*3 7 C 0 km/h
174 08-11-2010 10:45:01 7.2 C 6.36 g/m*3 7.2 C 0 km/h
175 08-11-2010 10:57:01 7.2 C 6.28 g/m*3 7.2 C 0 km/h
Sensor: Nr:Datum:Temp:Abs-Feuchte:Windchill:Wind:
Aussen-T/F 176 08-11-2010 11:09:02 7.5 C 6.08 g/m*3 7.5 C 0 km/h
177 08-11-2010 11:21:01 7.6 C 5.88 g/m*3 7.6 C 0 km/h
178 08-11-2010 11:33:02 7.1 C 5.54 g/m*3 7.1 C 0 km/h
179 08-11-2010 11:45:02 7.2 C 5.65 g/m*3 7.2 C 0 km/h
180 08-11-2010 11:57:02 6.9 C 5.62 g/m*3 6.9 C 0 km/h
181 08-11-2010 12:09:02 7.4 C 5.65 g/m*3 7.4 C 0 km/h
182 08-11-2010 12:21:02 8 C 5.29 g/m*3 8 C 0 km/h
183 08-11-2010 12:33:02 6.3 C 5.03 g/m*3 6.3 C 0 km/h
184 08-11-2010 12:45:02 6.1 C 5.26 g/m*3 6.1 C 0 km/h
185 08-11-2010 12:57:02 6.1 C 5.26 g/m*3 6.1 C 0 km/h
186 08-11-2010 13:09:02 6.4 C 5.29 g/m*3 6.4 C 0 km/h
187 08-11-2010 13:21:02 7.4 C 5.33 g/m*3 7.4 C 0 km/h
188 08-11-2010 13:33:03 8 C 5.29 g/m*3 8 C 0 km/h
189 08-11-2010 13:45:02 7.4 C 4.85 g/m*3 7.4 C 0 km/h
190 08-11-2010 13:57:03 7 C 4.96 g/m*3 7 C 0 km/h
191 08-11-2010 14:09:01 7.1 C 4.84 g/m*3 7.1 C 0 km/h
192 08-11-2010 14:21:02 6.7 C 4.79 g/m*3 6.7 C 0 km/h
193 08-11-2010 14:33:01 7.1 C 4.68 g/m*3 7.1 C 0 km/h
194 08-11-2010 14:45:02 6.8 C 4.59 g/m*3 6.8 C 0 km/h
195 08-11-2010 14:57:02 6.7 C 4.79 g/m*3 6.7 C 0 km/h
196 08-11-2010 15:09:01 6.1 C 4.68 g/m*3 6.1 C 0 km/h
197 08-11-2010 15:21:02 6.6 C 4.53 g/m*3 6.6 C 0 km/h
198 08-11-2010 15:33:01 6.1 C 4.46 g/m*3 6.1 C 0 km/h
199 08-11-2010 15:45:02 4.8 C 4.76 g/m*3 4.8 C 0 km/h
200 08-11-2010 15:57:02 4.4 C 4.83 g/m*3 4.4 C 0 km/h
Sensor: Nr:Datum:Temp:Abs-Feuchte:Windchill:Wind:
Aussen-T/F 201 08-11-2010 16:09:02 3.7 C 4.92 g/m*3 3.7 C 0 km/h
202 08-11-2010 16:21:02 3.4 C 4.89 g/m*3 3.4 C 0 km/h
203 08-11-2010 16:33:02 2.9 C 4.84 g/m*3 2.9 C 0 km/h
204 08-11-2010 16:45:02 2.6 C 4.86 g/m*3 2.6 C 0 km/h
205 08-11-2010 16:57:02 2.3 C 4.82 g/m*3 2.3 C 0 km/h
206 08-11-2010 17:09:02 2.5 C 4.94 g/m*3 2.5 C 0 km/h
207 08-11-2010 17:21:02 2.3 C 4.88 g/m*3 2.3 C 0 km/h
208 08-11-2010 17:33:02 2 C 4.83 g/m*3 2 C 0 km/h
209 08-11-2010 17:45:02 2 C 4.83 g/m*3 2 C 0 km/h
210 08-11-2010 17:57:02 1.6 C 4.76 g/m*3 1.6 C 0 km/h
211 08-11-2010 18:09:02 1.6 C 4.81 g/m*3 1.6 C 0 km/h
212 08-11-2010 18:21:02 1.7 C 4.85 g/m*3 1.7 C 0 km/h
213 08-11-2010 18:33:02 1.5 C 4.78 g/m*3 1.5 C 0 km/h
214 08-11-2010 18:45:01 1.4 C 4.8 g/m*3 1.4 C 0 km/h
215 08-11-2010 18:57:01 1.1 C 4.7 g/m*3 1.1 C 0 km/h
216 08-11-2010 19:09:02 1.6 C 4.87 g/m*3 1.6 C 0 km/h
217 08-11-2010 19:21:02 2.1 C 5.04 g/m*3 2.1 C 0 km/h
218 08-11-2010 19:33:02 2.2 C 5.13 g/m*3 2.2 C 0 km/h
219 08-11-2010 19:45:01 2.6 C 5.27 g/m*3 2.6 C 0 km/h
220 08-11-2010 19:57:01 2.8 C 5.28 g/m*3 2.8 C 0 km/h
221 08-11-2010 20:09:02 3.2 C 5.36 g/m*3 3.2 C 0 km/h
222 08-11-2010 20:21:01 3.4 C 5.44 g/m*3 3.4 C 0 km/h
223 08-11-2010 20:33:02 3.5 C 5.41 g/m*3 3.5 C 0 km/h
224 08-11-2010 20:45:02 3.6 C 5.45 g/m*3 3.6 C 0 km/h
225 08-11-2010 20:57:02 3.8 C 5.46 g/m*3 3.8 C 0 km/h
Sensor: Nr:Datum:Temp:Abs-Feuchte:Windchill:Wind:
Aussen-T/F 226 08-11-2010 21:09:02 3.9 C 5.49 g/m*3 3.9 C 0 km/h
227 08-11-2010 21:21:03 3.9 C 5.56 g/m*3 3.9 C 0 km/h
228 08-11-2010 21:33:02 3.9 C 5.56 g/m*3 3.9 C 0 km/h
229 08-11-2010 21:45:03 3.9 C 5.56 g/m*3 3.9 C 0 km/h
230 08-11-2010 21:57:03 3.9 C 5.62 g/m*3 3.9 C 0 km/h
231 08-11-2010 22:09:02 3.9 C 5.62 g/m*3 3.9 C 0 km/h
232 08-11-2010 22:21:02 4 C 5.59 g/m*3 4 C 0 km/h
233 08-11-2010 22:33:02 4.2 C 5.73 g/m*3 4.2 C 0 km/h
234 08-11-2010 22:45:02 4.5 C 5.85 g/m*3 4.5 C 0 km/h
235 08-11-2010 22:57:02 4.5 C 5.78 g/m*3 4.5 C 0 km/h
236 08-11-2010 23:10:05 4.6 C 5.69 g/m*3 4.6 C 0 km/h
237 08-11-2010 23:22:05 4.5 C 5.65 g/m*3 4.5 C 0 km/h
238 08-11-2010 23:34:05 4.4 C 5.55 g/m*3 4.4 C 0 km/h
239 08-11-2010 23:46:05 4.4 C 5.62 g/m*3 4.4 C 0 km/h
240 08-11-2010 23:58:05 4.3 C 5.58 g/m*3 4.3 C 0 km/h
241 09-11-2010 00:10:05 4.3 C 5.58 g/m*3 4.3 C 0 km/h
242 09-11-2010 00:22:05 4.1 C 5.57 g/m*3 4.1 C 0 km/h
243 09-11-2010 00:34:05 4.1 C 5.63 g/m*3 4.1 C 0 km/h
244 09-11-2010 00:46:05 4.4 C 5.75 g/m*3 4.4 C 0 km/h
245 09-11-2010 00:58:06 4.3 C 5.71 g/m*3 4.3 C 0 km/h
246 09-11-2010 01:10:06 4.1 C 5.7 g/m*3 4.1 C 0 km/h
247 09-11-2010 01:22:06 4.2 C 5.73 g/m*3 4.2 C 0 km/h
248 09-11-2010 01:34:06 4.3 C 5.77 g/m*3 4.3 C 0 km/h
249 09-11-2010 01:46:06 4.3 C 5.77 g/m*3 4.3 C 0 km/h
250 09-11-2010 01:58:06 4.1 C 5.7 g/m*3 4.1 C 0 km/h
Sensor: Nr:Datum:Temp:Abs-Feuchte:Windchill:Wind:
Aussen-T/F 251 09-11-2010 02:10:06 4.1 C 5.7 g/m*3 4.1 C 0 km/h
252 09-11-2010 02:22:06 4.1 C 5.7 g/m*3 4.1 C 0 km/h
253 09-11-2010 02:34:06 4.1 C 5.76 g/m*3 4.1 C 0 km/h
254 09-11-2010 02:46:06 4.3 C 5.84 g/m*3 4.3 C 0 km/h
255 09-11-2010 02:58:06 4.4 C 5.94 g/m*3 4.4 C 0 km/h
256 09-11-2010 03:10:06 4.3 C 5.9 g/m*3 4.3 C 0 km/h
257 09-11-2010 03:22:06 4.5 C 5.98 g/m*3 4.5 C 0 km/h
258 09-11-2010 03:34:06 4.4 C 5.94 g/m*3 4.4 C 0 km/h
259 09-11-2010 03:46:06 4.4 C 5.94 g/m*3 4.4 C 0 km/h
260 09-11-2010 03:58:06 4.7 C 6.06 g/m*3 4.7 C 0 km/h
261 09-11-2010 04:10:06 4.3 C 5.9 g/m*3 4.3 C 0 km/h
262 09-11-2010 04:22:06 4.3 C 5.9 g/m*3 4.3 C 0 km/h
263 09-11-2010 04:34:06 4.6 C 6.02 g/m*3 4.6 C 0 km/h
264 09-11-2010 04:46:06 4.5 C 5.98 g/m*3 4.5 C 0 km/h
265 09-11-2010 04:58:06 4.5 C 5.98 g/m*3 4.5 C 0 km/h
266 09-11-2010 05:10:07 4.7 C 6.06 g/m*3 4.7 C 0 km/h
267 09-11-2010 05:22:07 4.7 C 6.06 g/m*3 4.7 C 0 km/h
268 09-11-2010 05:34:07 4.7 C 6.06 g/m*3 4.7 C 0 km/h
269 09-11-2010 05:46:07 4.8 C 6.1 g/m*3 4.8 C 0 km/h
270 09-11-2010 05:58:07 4.8 C 6.1 g/m*3 4.8 C 0 km/h
271 09-11-2010 06:10:07 5 C 6.12 g/m*3 5 C 0 km/h
272 09-11-2010 06:22:07 5.1 C 6.16 g/m*3 5.1 C 0 km/h
273 09-11-2010 06:34:07 5.1 C 6.16 g/m*3 5.1 C 0 km/h
274 09-11-2010 06:46:07 5.1 C 6.16 g/m*3 5.1 C 0 km/h
275 09-11-2010 06:58:07 5.2 C 6.2 g/m*3 5.2 C 0 km/h
Sensor: Nr:Datum:Temp:Abs-Feuchte:Windchill:Wind:
Aussen-T/F 276 09-11-2010 07:10:07 5.3 C 6.24 g/m*3 5.3 C 0 km/h
277 09-11-2010 07:22:04 5.4 C 6.28 g/m*3 5.4 C 0 km/h
278 09-11-2010 07:34:04 5.6 C 6.29 g/m*3 5.6 C 0 km/h
279 09-11-2010 07:46:01 5.7 C 6.19 g/m*3 5.7 C 0 km/h
280 09-11-2010 07:58:01 5.9 C 6.2 g/m*3 5.9 C 0 km/h
281 09-11-2010 08:10:02 6.1 C 6.06 g/m*3 6.1 C 0 km/h
282 09-11-2010 08:22:02 6.2 C 6.1 g/m*3 6.2 C 0 km/h
283 09-11-2010 08:34:02 6.5 C 6.15 g/m*3 6.5 C 0 km/h
284 09-11-2010 08:46:01 6.5 C 6 g/m*3 6.5 C 0 km/h
285 09-11-2010 08:58:01 6.8 C 6.12 g/m*3 6.8 C 0 km/h
286 09-11-2010 09:10:02 7 C 6.04 g/m*3 7 C 0 km/h
287 09-11-2010 09:22:02 7 C 6.04 g/m*3 7 C 0 km/h
288 09-11-2010 09:34:02 6.7 C 6.08 g/m*3 6.7 C 0 km/h
289 09-11-2010 09:46:02 6.5 C 6 g/m*3 6.5 C 0 km/h
290 09-11-2010 09:58:02 7.3 C 6.32 g/m*3 7.3 C 0 km/h
291 09-11-2010 10:10:01 7.1 C 6.08 g/m*3 7.1 C 0 km/h
292 09-11-2010 10:22:02 6.6 C 6.11 g/m*3 6.6 C 0 km/h
293 09-11-2010 10:34:01 7.6 C 6.61 g/m*3 7.6 C 0 km/h
294 09-11-2010 10:46:02 9 C 6.26 g/m*3 9 C 0 km/h
295 09-11-2010 10:58:02 9.2 C 6.16 g/m*3 9.2 C 0 km/h
296 09-11-2010 11:10:01 9.1 C 6.03 g/m*3 9.1 C 0 km/h
297 09-11-2010 11:22:02 9.4 C 6.24 g/m*3 9.4 C 0 km/h
298 09-11-2010 11:34:01 9.2 C 6.16 g/m*3 9.2 C 0 km/h
299 09-11-2010 11:46:03 8.7 C 6.4 g/m*3 8.7 C 0 km/h
300 09-11-2010 11:58:03 9.4 C 6.6 g/m*3 9.4 C 0 km/h
Sensor: Nr:Datum:Temp:Abs-Feuchte:Windchill:Wind:
Aussen-T/F 301 09-11-2010 12:10:02 9.2 C 6.43 g/m*3 9.2 C 0 km/h
302 09-11-2010 12:22:02 9.8 C 6.49 g/m*3 9.8 C 0 km/h
303 09-11-2010 12:34:02 9.6 C 6.32 g/m*3 9.6 C 0 km/h
304 09-11-2010 12:46:02 9.4 C 6.42 g/m*3 9.4 C 0 km/h
305 09-11-2010 12:58:02 9.6 C 6.5 g/m*3 9.6 C 0 km/h
306 09-11-2010 13:10:01 9.9 C 6.44 g/m*3 9.9 C 0 km/h
307 09-11-2010 13:22:02 10 C 6.3 g/m*3 10 C 0 km/h
308 09-11-2010 13:34:02 9.2 C 6.25 g/m*3 9.2 C 0 km/h
309 09-11-2010 13:46:02 9.7 C 6.73 g/m*3 9.7 C 0 km/h
310 09-11-2010 13:58:02 9.5 C 6.64 g/m*3 9.5 C 0 km/h
311 09-11-2010 14:10:03 9.1 C 6.65 g/m*3 9.1 C 0 km/h
312 09-11-2010 14:22:02 9 C 6.7 g/m*3 9 C 0 km/h
313 09-11-2010 14:34:02 8.8 C 6.88 g/m*3 8.8 C 0 km/h
314 09-11-2010 14:46:01 8.7 C 6.92 g/m*3 8.7 C 0 km/h
315 09-11-2010 14:58:01 8.7 C 7.09 g/m*3 8.7 C 0 km/h
316 09-11-2010 15:10:02 8.6 C 7.05 g/m*3 8.6 C 0 km/h
317 09-11-2010 15:22:01 8.5 C 7 g/m*3 8.5 C 0 km/h
318 09-11-2010 15:34:01 8.4 C 7.04 g/m*3 8.4 C 0 km/h
319 09-11-2010 15:46:01 8.4 C 7.13 g/m*3 8.4 C 0 km/h
320 09-11-2010 15:58:01 8.2 C 7.12 g/m*3 8.2 C 0 km/h
321 09-11-2010 16:10:02 8.1 C 7.16 g/m*3 8.1 C 0 km/h
322 09-11-2010 16:22:01 8 C 7.11 g/m*3 8 C 0 km/h
323 09-11-2010 16:34:02 7.9 C 7.23 g/m*3 7.9 C 0 km/h
324 09-11-2010 16:46:02 7.8 C 7.18 g/m*3 7.8 C 0 km/h
325 09-11-2010 16:58:02 7.8 C 7.26 g/m*3 7.8 C 0 km/h
Sensor: Nr:Datum:Temp:Abs-Feuchte:Windchill:Wind:
Aussen-T/F 326 09-11-2010 17:10:02 7.7 C 7.22 g/m*3 7.7 C 0 km/h
327 09-11-2010 17:22:02 7.5 C 7.12 g/m*3 7.5 C 0 km/h
328 09-11-2010 17:34:02 7.2 C 6.99 g/m*3 7.2 C 0 km/h
329 09-11-2010 17:46:02 7.1 C 6.94 g/m*3 7.1 C 0 km/h
330 09-11-2010 17:58:02 7 C 6.97 g/m*3 7 C 0 km/h
331 09-11-2010 18:10:03 6.8 C 6.88 g/m*3 6.8 C 0 km/h
332 09-11-2010 18:22:02 6.7 C 6.84 g/m*3 6.7 C 0 km/h
333 09-11-2010 18:34:02 6.3 C 6.66 g/m*3 6.3 C 0 km/h
334 09-11-2010 18:46:01 6.4 C 6.78 g/m*3 6.4 C 0 km/h
335 09-11-2010 18:58:01 7 C 6.97 g/m*3 7 C 0 km/h
336 09-11-2010 19:10:02 7 C 7.05 g/m*3 7 C 0 km/h
337 09-11-2010 19:22:01 7 C 7.05 g/m*3 7 C 0 km/h
338 09-11-2010 19:34:01 6.7 C 6.91 g/m*3 6.7 C 0 km/h
339 09-11-2010 19:46:01 6.9 C 7.08 g/m*3 6.9 C 0 km/h
340 09-11-2010 19:58:01 6.7 C 6.99 g/m*3 6.7 C 0 km/h
341 09-11-2010 20:10:02 6.7 C 6.99 g/m*3 6.7 C 0 km/h
342 09-11-2010 20:22:01 6.7 C 6.99 g/m*3 6.7 C 0 km/h
343 09-11-2010 20:34:01 6.7 C 6.99 g/m*3 6.7 C 0 km/h
344 09-11-2010 20:46:01 6.9 C 7.08 g/m*3 6.9 C 0 km/h
345 09-11-2010 20:58:01 6.9 C 7.08 g/m*3 6.9 C 0 km/h
346 09-11-2010 21:10:02 6.9 C 7.08 g/m*3 6.9 C 0 km/h
347 09-11-2010 21:22:01 6.9 C 7.08 g/m*3 6.9 C 0 km/h
348 09-11-2010 21:34:01 6.9 C 7.08 g/m*3 6.9 C 0 km/h
349 09-11-2010 21:46:01 6.8 C 7.04 g/m*3 6.8 C 0 km/h
350 09-11-2010 21:58:01 6.7 C 6.99 g/m*3 6.7 C 0 km/h
Sensor: Nr:Datum:Temp:Abs-Feuchte:Windchill:Wind:
Aussen-T/F 351 09-11-2010 22:10:02 6.7 C 6.99 g/m*3 6.7 C 0 km/h
352 09-11-2010 22:23:03 6.7 C 6.99 g/m*3 6.7 C 0 km/h
353 09-11-2010 22:35:03 6.7 C 6.99 g/m*3 6.7 C 0 km/h
354 09-11-2010 22:47:03 6.9 C 7.08 g/m*3 6.9 C 0 km/h
355 09-11-2010 22:59:03 6.9 C 7.08 g/m*3 6.9 C 0 km/h
356 09-11-2010 23:11:03 6.9 C 7.08 g/m*3 6.9 C 0 km/h
357 09-11-2010 23:23:03 6.9 C 7.08 g/m*3 6.9 C 0 km/h
358 09-11-2010 23:35:03 6.9 C 7.08 g/m*3 6.9 C 0 km/h
359 09-11-2010 23:47:03 6.8 C 7.04 g/m*3 6.8 C 0 km/h
360 09-11-2010 23:59:03 6.7 C 6.99 g/m*3 6.7 C 0 km/h
361 10-11-2010 00:11:03 6.6 C 6.95 g/m*3 6.6 C 0 km/h
362 10-11-2010 00:23:03 6.4 C 6.85 g/m*3 6.4 C 0 km/h
363 10-11-2010 00:35:03 6.3 C 6.81 g/m*3 6.3 C 0 km/h
364 10-11-2010 00:47:03 6.7 C 6.99 g/m*3 6.7 C 0 km/h
365 10-11-2010 00:59:03 6.8 C 7.04 g/m*3 6.8 C 0 km/h
366 10-11-2010 01:11:03 6.9 C 7.08 g/m*3 6.9 C 0 km/h
367 10-11-2010 01:23:03 6.9 C 7.16 g/m*3 6.9 C 0 km/h
368 10-11-2010 01:35:03 7 C 7.13 g/m*3 7 C 0 km/h
369 10-11-2010 01:47:04 6.9 C 7.16 g/m*3 6.9 C 0 km/h
370 10-11-2010 01:59:04 6.9 C 7.16 g/m*3 6.9 C 0 km/h
371 10-11-2010 02:11:04 6.9 C 7.16 g/m*3 6.9 C 0 km/h
372 10-11-2010 02:23:04 6.9 C 7.16 g/m*3 6.9 C 0 km/h
373 10-11-2010 02:35:04 6.8 C 7.11 g/m*3 6.8 C 0 km/h
374 10-11-2010 02:47:04 6.9 C 7.16 g/m*3 6.9 C 0 km/h
375 10-11-2010 02:59:04 7 C 7.13 g/m*3 7 C 0 km/h
Sensor: Nr:Datum:Temp:Abs-Feuchte:Windchill:Wind:
Aussen-T/F 376 10-11-2010 03:11:04 7.1 C 7.18 g/m*3 7.1 C 0 km/h
377 10-11-2010 03:23:04 7.1 C 7.18 g/m*3 7.1 C 0 km/h
378 10-11-2010 03:35:04 7 C 7.13 g/m*3 7 C 0 km/h
379 10-11-2010 03:47:04 7.2 C 7.22 g/m*3 7.2 C 0 km/h
380 10-11-2010 03:59:04 7.1 C 7.18 g/m*3 7.1 C 0 km/h
381 10-11-2010 04:11:04 7 C 7.13 g/m*3 7 C 0 km/h
382 10-11-2010 04:23:04 7 C 7.13 g/m*3 7 C 0 km/h
383 10-11-2010 04:35:04 6.8 C 7.11 g/m*3 6.8 C 0 km/h
384 10-11-2010 04:47:04 6.8 C 7.11 g/m*3 6.8 C 0 km/h
385 10-11-2010 04:59:04 6.8 C 7.11 g/m*3 6.8 C 0 km/h
386 10-11-2010 05:11:04 6.8 C 7.11 g/m*3 6.8 C 0 km/h
387 10-11-2010 05:23:04 6.7 C 7.07 g/m*3 6.7 C 0 km/h
388 10-11-2010 05:35:04 6.9 C 7.16 g/m*3 6.9 C 0 km/h
389 10-11-2010 05:47:05 7 C 7.13 g/m*3 7 C 0 km/h
390 10-11-2010 05:59:05 7.1 C 7.18 g/m*3 7.1 C 0 km/h
391 10-11-2010 06:11:05 7.1 C 7.18 g/m*3 7.1 C 0 km/h
392 10-11-2010 06:23:05 7 C 7.13 g/m*3 7 C 0 km/h
393 10-11-2010 06:35:05 6.9 C 7.16 g/m*3 6.9 C 0 km/h
394 10-11-2010 06:47:05 6.8 C 7.11 g/m*3 6.8 C 0 km/h
395 10-11-2010 06:59:05 6.3 C 6.88 g/m*3 6.3 C 0 km/h
396 10-11-2010 07:11:05 6.1 C 6.79 g/m*3 6.1 C 0 km/h
397 10-11-2010 07:23:05 6.1 C 6.79 g/m*3 6.1 C 0 km/h
398 10-11-2010 07:35:05 6.7 C 6.99 g/m*3 6.7 C 0 km/h
399 10-11-2010 07:47:03 6.3 C 6.81 g/m*3 6.3 C 0 km/h
400 10-11-2010 07:59:03 6.5 C 6.97 g/m*3 6.5 C 0 km/h
Sensor: Nr:Datum:Temp:Abs-Feuchte:Windchill:Wind:
Aussen-T/F 401 10-11-2010 08:11:02 6.6 C 7.02 g/m*3 6.6 C 0 km/h
402 10-11-2010 08:23:03 6.6 C 7.02 g/m*3 6.6 C 0 km/h
403 10-11-2010 08:35:02 6.7 C 7.07 g/m*3 6.7 C 0 km/h
404 10-11-2010 08:47:02 6.7 C 6.99 g/m*3 6.7 C 0 km/h
405 10-11-2010 08:59:02 7 C 7.13 g/m*3 7 C 0 km/h
406 10-11-2010 09:11:02 7.3 C 7.27 g/m*3 7.3 C 0 km/h
407 10-11-2010 09:23:02 8.2 C 7.62 g/m*3 8.2 C 0 km/h
408 10-11-2010 09:35:03 8.3 C 7.67 g/m*3 8.3 C 0 km/h
409 10-11-2010 09:47:02 8.6 C 7.73 g/m*3 8.6 C 0 km/h
410 10-11-2010 09:59:03 8.7 C 7.52 g/m*3 8.7 C 0 km/h
411 10-11-2010 10:11:01 9 C 7.32 g/m*3 9 C 0 km/h
412 10-11-2010 10:23:02 9.5 C 7.19 g/m*3 9.5 C 0 km/h
413 10-11-2010 10:35:02 9.6 C 6.96 g/m*3 9.6 C 0 km/h
414 10-11-2010 10:47:02 9.8 C 6.59 g/m*3 9.8 C 0 km/h
415 10-11-2010 10:59:02 10.1 C 6.52 g/m*3 10.1 C 0 km/h
416 10-11-2010 11:11:03 9.6 C 6.41 g/m*3 9.6 C 0 km/h
417 10-11-2010 11:23:02 9.6 C 6.5 g/m*3 9.6 C 0 km/h
418 10-11-2010 11:35:02 9.5 C 6.46 g/m*3 9.5 C 0 km/h
419 10-11-2010 11:47:01 9.6 C 6.5 g/m*3 9.6 C 0 km/h
420 10-11-2010 11:59:01 9.9 C 6.54 g/m*3 9.9 C 0 km/h
421 10-11-2010 12:11:02 9.8 C 6.49 g/m*3 9.8 C 0 km/h
422 10-11-2010 12:23:01 10.1 C 6.43 g/m*3 10.1 C 0 km/h
423 10-11-2010 12:35:01 9.8 C 6.49 g/m*3 9.8 C 0 km/h
424 10-11-2010 12:47:01 10.4 C 6.55 g/m*3 10.4 C 0 km/h
425 10-11-2010 12:59:01 10.8 C 6.42 g/m*3 10.8 C 0 km/h
Sensor: Nr:Datum:Temp:Abs-Feuchte:Windchill:Wind:
Aussen-T/F 426 10-11-2010 13:11:02 10.9 C 6.47 g/m*3 10.9 C 0 km/h
427 10-11-2010 13:23:01 11.2 C 6.18 g/m*3 11.2 C 0 km/h
428 10-11-2010 13:35:01 11.2 C 6.18 g/m*3 11.2 C 0 km/h
429 10-11-2010 13:47:01 11.2 C 5.98 g/m*3 11.2 C 0 km/h
430 10-11-2010 13:59:01 10.9 C 5.97 g/m*3 10.9 C 0 km/h
431 10-11-2010 14:11:01 10.5 C 5.92 g/m*3 10.5 C 0 km/h
432 10-11-2010 14:23:02 10.5 C 6.01 g/m*3 10.5 C 0 km/h
433 10-11-2010 14:35:01 10.5 C 6.01 g/m*3 10.5 C 0 km/h
434 10-11-2010 14:47:02 10.6 C 6.05 g/m*3 10.6 C 0 km/h
435 10-11-2010 14:59:02 10.5 C 6.11 g/m*3 10.5 C 0 km/h
436 10-11-2010 15:11:01 10.2 C 6.28 g/m*3 10.2 C 0 km/h
437 10-11-2010 15:23:02 7.9 C 6.32 g/m*3 7.9 C 0 km/h
438 10-11-2010 15:35:01 7.4 C 6.44 g/m*3 7.4 C 0 km/h
439 10-11-2010 15:47:02 7.1 C 6.47 g/m*3 7.1 C 0 km/h
440 10-11-2010 15:59:02 6.7 C 6.38 g/m*3 6.7 C 0 km/h
441 10-11-2010 16:11:02 6.5 C 6.22 g/m*3 6.5 C 0 km/h
442 10-11-2010 16:23:02 6.1 C 6.14 g/m*3 6.1 C 0 km/h
443 10-11-2010 16:35:02 6.3 C 6.22 g/m*3 6.3 C 0 km/h
444 10-11-2010 16:47:02 6.1 C 6.14 g/m*3 6.1 C 0 km/h
445 10-11-2010 16:59:02 6.2 C 6.18 g/m*3 6.2 C 0 km/h
446 10-11-2010 17:11:02 6.3 C 6 g/m*3 6.3 C 0 km/h
447 10-11-2010 17:23:02 6.1 C 5.77 g/m*3 6.1 C 0 km/h
448 10-11-2010 17:35:01 5.9 C 5.84 g/m*3 5.9 C 0 km/h
449 10-11-2010 17:47:02 5.7 C 5.69 g/m*3 5.7 C 0 km/h
450 10-11-2010 17:59:02 5.7 C 5.76 g/m*3 5.7 C 0 km/h
Sensor: Nr:Datum:Temp:Abs-Feuchte:Windchill:Wind:
Aussen-T/F 451 10-11-2010 18:11:01 5.4 C 5.58 g/m*3 5.4 C 0 km/h
452 10-11-2010 18:23:02 5.3 C 5.68 g/m*3 5.3 C 0 km/h
453 10-11-2010 18:35:01 5.2 C 5.65 g/m*3 5.2 C 0 km/h
454 10-11-2010 18:47:02 5.2 C 5.71 g/m*3 5.2 C 0 km/h
455 10-11-2010 18:59:03 5 C 5.71 g/m*3 5 C 0 km/h
456 10-11-2010 19:11:02 5.1 C 5.68 g/m*3 5.1 C 0 km/h
457 10-11-2010 19:23:02 5 C 5.64 g/m*3 5 C 0 km/h
458 10-11-2010 19:35:02 5.3 C 5.68 g/m*3 5.3 C 0 km/h
459 10-11-2010 19:47:01 5.3 C 5.61 g/m*3 5.3 C 0 km/h
460 10-11-2010 19:59:01 5.3 C 5.54 g/m*3 5.3 C 0 km/h
461 10-11-2010 20:11:02 5.2 C 5.51 g/m*3 5.2 C 0 km/h
462 10-11-2010 20:23:01 5.4 C 5.51 g/m*3 5.4 C 0 km/h
463 10-11-2010 20:35:02 5.5 C 5.48 g/m*3 5.5 C 0 km/h
464 10-11-2010 20:47:02 5.3 C 5.54 g/m*3 5.3 C 0 km/h
465 10-11-2010 20:59:02 5.3 C 5.48 g/m*3 5.3 C 0 km/h
466 10-11-2010 21:11:02 5 C 5.5 g/m*3 5 C 0 km/h
467 10-11-2010 21:23:02 4.8 C 5.63 g/m*3 4.8 C 0 km/h
468 10-11-2010 21:35:02 4.6 C 5.62 g/m*3 4.6 C 0 km/h
469 10-11-2010 21:47:02 4.1 C 5.44 g/m*3 4.1 C 0 km/h
470 10-11-2010 21:59:02 3.8 C 5.4 g/m*3 3.8 C 0 km/h
471 10-11-2010 22:11:02 4.1 C 5.5 g/m*3 4.1 C 0 km/h
472 10-11-2010 22:24:03 4.3 C 5.58 g/m*3 4.3 C 0 km/h
473 10-11-2010 22:36:04 4.9 C 5.74 g/m*3 4.9 C 0 km/h
474 10-11-2010 22:48:04 4.9 C 5.54 g/m*3 4.9 C 0 km/h
475 10-11-2010 23:00:04 4.5 C 5.32 g/m*3 4.5 C 0 km/h
Sensor: Nr:Datum:Temp:Abs-Feuchte:Windchill:Wind:
Aussen-T/F 476 10-11-2010 23:12:04 4.5 C 5.39 g/m*3 4.5 C 0 km/h
477 10-11-2010 23:24:04 4.2 C 5.35 g/m*3 4.2 C 0 km/h
478 10-11-2010 23:36:04 4.1 C 5.31 g/m*3 4.1 C 0 km/h
479 10-11-2010 23:48:04 4.2 C 5.35 g/m*3 4.2 C 0 km/h
480 11-11-2010 00:00:04 4.5 C 5.39 g/m*3 4.5 C 0 km/h
481 11-11-2010 00:12:04 4.8 C 5.3 g/m*3 4.8 C 0 km/h
482 11-11-2010 00:24:04 4.8 C 5.23 g/m*3 4.8 C 0 km/h
483 11-11-2010 00:36:04 4.5 C 5.19 g/m*3 4.5 C 0 km/h
484 11-11-2010 00:48:04 4.4 C 5.35 g/m*3 4.4 C 0 km/h
485 11-11-2010 01:00:04 4.4 C 5.42 g/m*3 4.4 C 0 km/h
486 11-11-2010 01:12:04 4.5 C 5.46 g/m*3 4.5 C 0 km/h
487 11-11-2010 01:24:04 4.5 C 5.46 g/m*3 4.5 C 0 km/h
488 11-11-2010 01:36:04 4.6 C 5.49 g/m*3 4.6 C 0 km/h
489 11-11-2010 01:48:04 4.5 C 5.39 g/m*3 4.5 C 0 km/h
490 11-11-2010 02:00:04 5 C 5.5 g/m*3 5 C 0 km/h
491 11-11-2010 02:12:04 5 C 5.44 g/m*3 5 C 0 km/h
492 11-11-2010 02:24:04 4.9 C 5.4 g/m*3 4.9 C 0 km/h
493 11-11-2010 02:36:04 5.1 C 5.4 g/m*3 5.1 C 0 km/h
494 11-11-2010 02:48:04 5.1 C 5.34 g/m*3 5.1 C 0 km/h
495 11-11-2010 03:00:05 5.2 C 5.3 g/m*3 5.2 C 0 km/h
496 11-11-2010 03:12:05 5.2 C 5.3 g/m*3 5.2 C 0 km/h
497 11-11-2010 03:24:05 5.2 C 5.23 g/m*3 5.2 C 0 km/h
498 11-11-2010 03:36:05 4.4 C 5.09 g/m*3 4.4 C 0 km/h
499 11-11-2010 03:48:05 4.2 C 5.22 g/m*3 4.2 C 0 km/h
500 11-11-2010 04:00:05 4.6 C 5.29 g/m*3 4.6 C 0 km/h
Sensor: Nr:Datum:Temp:Abs-Feuchte:Windchill:Wind:
Aussen-T/F 501 11-11-2010 04:12:05 4.1 C 5.12 g/m*3 4.1 C 0 km/h
502 11-11-2010 04:24:05 4.2 C 5.22 g/m*3 4.2 C 0 km/h
503 11-11-2010 04:36:05 4.5 C 5.32 g/m*3 4.5 C 0 km/h
504 11-11-2010 04:48:05 4.1 C 5.25 g/m*3 4.1 C 0 km/h
505 11-11-2010 05:00:05 3.8 C 5.21 g/m*3 3.8 C 0 km/h
506 11-11-2010 05:12:05 4 C 5.28 g/m*3 4 C 0 km/h
507 11-11-2010 05:24:05 3.7 C 5.11 g/m*3 3.7 C 0 km/h
508 11-11-2010 05:36:05 4.6 C 5.23 g/m*3 4.6 C 0 km/h
509 11-11-2010 05:48:05 4.5 C 5.19 g/m*3 4.5 C 0 km/h
510 11-11-2010 06:00:05 4.2 C 5.03 g/m*3 4.2 C 0 km/h
511 11-11-2010 06:12:05 3.5 C 4.92 g/m*3 3.5 C 0 km/h
512 11-11-2010 06:24:05 3.6 C 5.08 g/m*3 3.6 C 0 km/h
513 11-11-2010 06:36:05 3.7 C 5.05 g/m*3 3.7 C 0 km/h
514 11-11-2010 06:48:05 3.5 C 4.98 g/m*3 3.5 C 0 km/h
515 11-11-2010 07:00:05 3.1 C 4.85 g/m*3 3.1 C 0 km/h
516 11-11-2010 07:12:05 3.1 C 4.91 g/m*3 3.1 C 0 km/h
517 11-11-2010 07:24:03 3.6 C 5.08 g/m*3 3.6 C 0 km/h
518 11-11-2010 07:36:03 4 C 5.09 g/m*3 4 C 0 km/h
519 11-11-2010 07:48:01 4 C 4.96 g/m*3 4 C 0 km/h
520 11-11-2010 08:00:01 3.3 C 4.73 g/m*3 3.3 C 0 km/h
521 11-11-2010 08:12:02 2.5 C 4.71 g/m*3 2.5 C 0 km/h
522 11-11-2010 08:24:01 2 C 4.61 g/m*3 2 C 0 km/h
523 11-11-2010 08:36:02 2.1 C 4.76 g/m*3 2.1 C 0 km/h
524 11-11-2010 08:48:02 1.7 C 4.74 g/m*3 1.7 C 0 km/h
525 11-11-2010 09:00:02 2.2 C 4.9 g/m*3 2.2 C 0 km/h
Sensor: Nr:Datum:Temp:Abs-Feuchte:Windchill:Wind:
Aussen-T/F 526 11-11-2010 09:12:02 3.1 C 5.27 g/m*3 3.1 C 0 km/h
527 11-11-2010 09:24:02 4 C 5.53 g/m*3 4 C 0 km/h
528 11-11-2010 09:36:02 4.5 C 5.52 g/m*3 4.5 C 0 km/h
529 11-11-2010 09:48:02 4.5 C 5.19 g/m*3 4.5 C 0 km/h
530 11-11-2010 10:00:02 4.7 C 4.93 g/m*3 4.7 C 0 km/h
531 11-11-2010 10:12:02 5 C 4.76 g/m*3 5 C 0 km/h
532 11-11-2010 10:24:02 5.5 C 4.64 g/m*3 5.5 C 0 km/h
533 11-11-2010 10:36:02 6.2 C 4.41 g/m*3 6.2 C 0 km/h
534 11-11-2010 10:48:02 6.5 C 4.12 g/m*3 6.5 C 0 km/h
535 11-11-2010 11:00:02 6.7 C 3.88 g/m*3 6.7 C 0 km/h
536 11-11-2010 11:12:02 6.9 C 3.85 g/m*3 6.9 C 0 km/h
537 11-11-2010 11:24:02 7 C 3.72 g/m*3 7 C 0 km/h
538 11-11-2010 11:36:02 7.1 C 3.74 g/m*3 7.1 C 0 km/h
539 11-11-2010 11:48:03 7 C 3.72 g/m*3 7 C 0 km/h
540 11-11-2010 12:00:03 7.2 C 3.92 g/m*3 7.2 C 0 km/h
541 11-11-2010 12:12:03 7.2 C 3.85 g/m*3 7.2 C 0 km/h
542 11-11-2010 12:24:03 7.4 C 3.98 g/m*3 7.4 C 0 km/h
543 11-11-2010 12:36:04 7.6 C 4.03 g/m*3 7.6 C 0 km/h
544 11-11-2010 12:48:04 7.9 C 4.11 g/m*3 7.9 C 0 km/h
545 11-11-2010 13:00:04 7.9 C 4.11 g/m*3 7.9 C 0 km/h
546 11-11-2010 13:12:04 7.7 C 4.14 g/m*3 7.7 C 0 km/h
547 11-11-2010 13:24:04 7.7 C 4.22 g/m*3 7.7 C 0 km/h
548 11-11-2010 13:36:04 7.6 C 4.11 g/m*3 7.6 C 0 km/h
549 11-11-2010 13:48:04 7.6 C 4.19 g/m*3 7.6 C 0 km/h
550 11-11-2010 14:00:04 7.4 C 4.21 g/m*3 7.4 C 0 km/h
Sensor: Nr:Datum:Temp:Abs-Feuchte:Windchill:Wind:
Aussen-T/F 551 11-11-2010 14:12:04 7.4 C 4.29 g/m*3 7.4 C 0 km/h
552 11-11-2010 14:24:04 7.3 C 4.27 g/m*3 7.3 C 0 km/h
553 11-11-2010 14:36:04 7.3 C 4.19 g/m*3 7.3 C 0 km/h
554 11-11-2010 14:48:04 7.4 C 4.21 g/m*3 7.4 C 0 km/h
555 11-11-2010 15:00:04 7.3 C 4.27 g/m*3 7.3 C 0 km/h
556 11-11-2010 15:12:04 7.3 C 4.35 g/m*3 7.3 C 0 km/h
557 11-11-2010 15:24:04 7 C 4.34 g/m*3 7 C 0 km/h
558 11-11-2010 15:36:04 6.4 C 4.47 g/m*3 6.4 C 0 km/h
559 11-11-2010 15:48:04 6 C 4.79 g/m*3 6 C 0 km/h
560 11-11-2010 16:00:04 5.7 C 4.91 g/m*3 5.7 C 0 km/h
561 11-11-2010 16:12:04 5.7 C 5.05 g/m*3 5.7 C 0 km/h
562 11-11-2010 16:24:04 5.6 C 5.09 g/m*3 5.6 C 0 km/h
563 11-11-2010 16:36:04 5.3 C 5.06 g/m*3 5.3 C 0 km/h
564 11-11-2010 16:48:04 5.4 C 5.3 g/m*3 5.4 C 0 km/h
565 11-11-2010 17:00:05 5 C 5.3 g/m*3 5 C 0 km/h
566 11-11-2010 17:12:05 5 C 5.44 g/m*3 5 C 0 km/h
567 11-11-2010 17:24:05 5.4 C 5.51 g/m*3 5.4 C 0 km/h
568 11-11-2010 17:36:05 5.6 C 5.59 g/m*3 5.6 C 0 km/h
569 11-11-2010 17:48:05 5.4 C 5.58 g/m*3 5.4 C 0 km/h
570 11-11-2010 18:00:05 5.5 C 5.69 g/m*3 5.5 C 0 km/h
571 11-11-2010 18:12:05 5.5 C 5.76 g/m*3 5.5 C 0 km/h
572 11-11-2010 18:24:05 5.6 C 5.87 g/m*3 5.6 C 0 km/h
573 11-11-2010 18:36:05 5.7 C 5.98 g/m*3 5.7 C 0 km/h
574 11-11-2010 18:48:01 5.9 C 6.06 g/m*3 5.9 C 0 km/h
575 11-11-2010 19:00:01 5.9 C 6.13 g/m*3 5.9 C 0 km/h
Sensor: Nr:Datum:Temp:Abs-Feuchte:Windchill:Wind:
Aussen-T/F 576 11-11-2010 19:12:02 5.9 C 6.2 g/m*3 5.9 C 0 km/h
577 11-11-2010 19:24:02 6.2 C 6.32 g/m*3 6.2 C 0 km/h
578 11-11-2010 19:36:01 6.5 C 6.37 g/m*3 6.5 C 0 km/h
579 11-11-2010 19:48:02 6.6 C 6.34 g/m*3 6.6 C 0 km/h
580 11-11-2010 20:00:02 7 C 6.35 g/m*3 7 C 0 km/h
581 11-11-2010 20:12:01 7.2 C 6.28 g/m*3 7.2 C 0 km/h
582 11-11-2010 20:24:02 7.6 C 6.36 g/m*3 7.6 C 0 km/h
583 11-11-2010 20:36:01 7.7 C 6.41 g/m*3 7.7 C 0 km/h
584 11-11-2010 20:48:03 8 C 6.28 g/m*3 8 C 0 km/h
585 11-11-2010 21:00:03 7.9 C 6.41 g/m*3 7.9 C 0 km/h
586 11-11-2010 21:12:02 8.4 C 6.45 g/m*3 8.4 C 0 km/h
587 11-11-2010 21:24:02 8.5 C 6.57 g/m*3 8.5 C 0 km/h
588 11-11-2010 21:36:02 8.7 C 6.66 g/m*3 8.7 C 0 km/h
589 11-11-2010 21:48:02 8.7 C 6.75 g/m*3 8.7 C 0 km/h
590 11-11-2010 22:00:02 8.5 C 6.83 g/m*3 8.5 C 0 km/h
591 11-11-2010 22:12:02 8.7 C 7.09 g/m*3 8.7 C 0 km/h
592 11-11-2010 22:24:02 9 C 7.32 g/m*3 9 C 0 km/h
593 11-11-2010 22:36:01 10.2 C 7.52 g/m*3 10.2 C 0 km/h
594 11-11-2010 22:48:02 10.3 C 7.37 g/m*3 10.3 C 0 km/h
595 11-11-2010 23:00:02 10 C 7.42 g/m*3 10 C 0 km/h
596 11-11-2010 23:12:01 9.9 C 7.75 g/m*3 9.9 C 0 km/h
597 11-11-2010 23:24:02 9.7 C 7.74 g/m*3 9.7 C 0 km/h
598 11-11-2010 23:36:01 9.6 C 7.79 g/m*3 9.6 C 0 km/h
599 11-11-2010 23:48:02 9.7 C 7.74 g/m*3 9.7 C 0 km/h
600 12-11-2010 00:00:02 10 C 7.52 g/m*3 10 C 0 km/h
Sensor: Nr:Datum:Temp:Abs-Feuchte:Windchill:Wind:
Aussen-T/F 601 12-11-2010 00:12:02 9.7 C 7.01 g/m*3 9.7 C 0 km/h
602 12-11-2010 00:24:02 9.6 C 6.78 g/m*3 9.6 C 0 km/h
603 12-11-2010 00:36:02 10 C 6.39 g/m*3 10 C 0 km/h
604 12-11-2010 00:48:01 9.4 C 6.42 g/m*3 9.4 C 0 km/h
605 12-11-2010 01:00:01 9.5 C 6.37 g/m*3 9.5 C 0 km/h
606 12-11-2010 01:12:02 9.3 C 6.11 g/m*3 9.3 C 0 km/h
607 12-11-2010 01:24:01 10 C 6.01 g/m*3 10 C 0 km/h
608 12-11-2010 01:36:02 10.2 C 5.71 g/m*3 10.2 C 0 km/h
609 12-11-2010 01:48:01 10.2 C 5.42 g/m*3 10.2 C 0 km/h
610 12-11-2010 02:00:01 9.7 C 5.44 g/m*3 9.7 C 0 km/h
611 12-11-2010 02:12:02 9.4 C 5.61 g/m*3 9.4 C 0 km/h
612 12-11-2010 02:24:01 10.2 C 5.71 g/m*3 10.2 C 0 km/h
613 12-11-2010 02:36:02 10.2 C 5.8 g/m*3 10.2 C 0 km/h
614 12-11-2010 02:49:03 9.9 C 5.6 g/m*3 9.9 C 0 km/h
615 12-11-2010 03:01:03 9.6 C 5.77 g/m*3 9.6 C 0 km/h
616 12-11-2010 03:13:04 9.6 C 5.86 g/m*3 9.6 C 0 km/h
617 12-11-2010 03:25:04 9.3 C 5.75 g/m*3 9.3 C 0 km/h
618 12-11-2010 03:37:02 9.6 C 5.86 g/m*3 9.6 C 0 km/h
619 12-11-2010 03:49:02 9.9 C 5.79 g/m*3 9.9 C 0 km/h
620 12-11-2010 04:01:02 9.9 C 5.7 g/m*3 9.9 C 0 km/h
621 12-11-2010 04:13:02 10.1 C 5.48 g/m*3 10.1 C 0 km/h
622 12-11-2010 04:25:01 9.8 C 5.57 g/m*3 9.8 C 0 km/h
623 12-11-2010 04:37:02 9.5 C 5.55 g/m*3 9.5 C 0 km/h
624 12-11-2010 04:49:02 9.7 C 5.72 g/m*3 9.7 C 0 km/h
625 12-11-2010 05:01:02 9.9 C 5.79 g/m*3 9.9 C 0 km/h
Sensor: Nr:Datum:Temp:Abs-Feuchte:Windchill:Wind:
Aussen-T/F 626 12-11-2010 05:13:02 9.5 C 5.73 g/m*3 9.5 C 0 km/h
627 12-11-2010 05:25:02 9.8 C 5.85 g/m*3 9.8 C 0 km/h
628 12-11-2010 05:37:02 10.2 C 5.71 g/m*3 10.2 C 0 km/h
629 12-11-2010 05:49:01 10.3 C 5.75 g/m*3 10.3 C 0 km/h
630 12-11-2010 06:01:02 10.6 C 5.66 g/m*3 10.6 C 0 km/h
631 12-11-2010 06:13:02 10.7 C 5.7 g/m*3 10.7 C 0 km/h
632 12-11-2010 06:25:02 10.6 C 5.76 g/m*3 10.6 C 0 km/h
633 12-11-2010 06:37:01 10.6 C 5.86 g/m*3 10.6 C 0 km/h
634 12-11-2010 06:49:02 10.6 C 5.86 g/m*3 10.6 C 0 km/h
635 12-11-2010 07:01:01 10.7 C 5.89 g/m*3 10.7 C 0 km/h
636 12-11-2010 07:13:01 10.5 C 5.82 g/m*3 10.5 C 0 km/h
637 12-11-2010 07:25:02 10.7 C 5.8 g/m*3 10.7 C 0 km/h
638 12-11-2010 07:37:01 10.5 C 5.72 g/m*3 10.5 C 0 km/h
639 12-11-2010 07:49:02 10.7 C 5.8 g/m*3 10.7 C 0 km/h
640 12-11-2010 08:01:01 10.7 C 5.8 g/m*3 10.7 C 0 km/h
641 12-11-2010 08:13:01 10.6 C 5.86 g/m*3 10.6 C 0 km/h
642 12-11-2010 08:25:02 10.8 C 5.83 g/m*3 10.8 C 0 km/h
643 12-11-2010 08:37:02 10.7 C 5.8 g/m*3 10.7 C 0 km/h
644 12-11-2010 08:49:01 10.7 C 5.8 g/m*3 10.7 C 0 km/h
645 12-11-2010 09:01:02 10.7 C 5.8 g/m*3 10.7 C 0 km/h
646 12-11-2010 09:13:02 11 C 5.81 g/m*3 11 C 0 km/h
647 12-11-2010 09:25:01 10.8 C 5.83 g/m*3 10.8 C 0 km/h
648 12-11-2010 09:37:01 10.8 C 5.93 g/m*3 10.8 C 0 km/h
649 12-11-2010 09:49:01 10.9 C 5.87 g/m*3 10.9 C 0 km/h
650 12-11-2010 10:01:02 10.1 C 6.05 g/m*3 10.1 C 0 km/h
Sensor: Nr:Datum:Temp:Abs-Feuchte:Windchill:Wind:
Aussen-T/F 651 12-11-2010 10:13:02 10.5 C 6.11 g/m*3 10.5 C 0 km/h
652 12-11-2010 10:25:01 10.8 C 6.23 g/m*3 10.8 C 0 km/h
653 12-11-2010 10:37:01 11 C 6.11 g/m*3 11 C 0 km/h
654 12-11-2010 10:49:01 11.1 C 6.04 g/m*3 11.1 C 0 km/h
655 12-11-2010 11:01:02 11.2 C 6.08 g/m*3 11.2 C 0 km/h
656 12-11-2010 11:13:02 11.1 C 6.14 g/m*3 11.1 C 0 km/h
657 12-11-2010 11:25:01 11.4 C 6.16 g/m*3 11.4 C 0 km/h
658 12-11-2010 11:37:01 11.6 C 6.03 g/m*3 11.6 C 0 km/h
659 12-11-2010 11:49:01 11.8 C 6 g/m*3 11.8 C 0 km/h
660 12-11-2010 12:01:01 11.9 C 5.93 g/m*3 11.9 C 0 km/h
661 12-11-2010 12:13:01 12.1 C 5.79 g/m*3 12.1 C 0 km/h
662 12-11-2010 12:25:02 12.1 C 5.79 g/m*3 12.1 C 0 km/h
663 12-11-2010 12:37:01 11.7 C 5.86 g/m*3 11.7 C 0 km/h
664 12-11-2010 12:49:02 11.6 C 6.55 g/m*3 11.6 C 0 km/h
665 12-11-2010 13:01:02 11.7 C 6.28 g/m*3 11.7 C 0 km/h
666 12-11-2010 13:13:02 12 C 6.18 g/m*3 12 C 0 km/h
667 12-11-2010 13:25:02 11.8 C 6.1 g/m*3 11.8 C 0 km/h
668 12-11-2010 13:37:01 11.4 C 6.36 g/m*3 11.4 C 0 km/h
669 12-11-2010 13:49:02 11.3 C 6.53 g/m*3 11.3 C 0 km/h
670 12-11-2010 14:01:01 11.7 C 6.48 g/m*3 11.7 C 0 km/h
671 12-11-2010 14:13:01 11.6 C 6.55 g/m*3 11.6 C 0 km/h
672 12-11-2010 14:25:02 11.6 C 6.55 g/m*3 11.6 C 0 km/h
673 12-11-2010 14:37:02 11.6 C 6.55 g/m*3 11.6 C 0 km/h
674 12-11-2010 14:49:02 11.5 C 6.61 g/m*3 11.5 C 0 km/h
675 12-11-2010 15:01:02 11.5 C 6.61 g/m*3 11.5 C 0 km/h
Sensor: Nr:Datum:Temp:Abs-Feuchte:Windchill:Wind:
Aussen-T/F 676 12-11-2010 15:13:02 11.5 C 6.61 g/m*3 11.5 C 0 km/h
677 12-11-2010 15:25:02 11.5 C 6.51 g/m*3 11.5 C 0 km/h
678 12-11-2010 15:37:02 11.8 C 6.53 g/m*3 11.8 C 0 km/h
679 12-11-2010 15:49:01 11.7 C 6.59 g/m*3 11.7 C 0 km/h
680 12-11-2010 16:01:02 11.7 C 6.59 g/m*3 11.7 C 0 km/h
681 12-11-2010 16:13:02 11.5 C 6.51 g/m*3 11.5 C 0 km/h
682 12-11-2010 16:25:01 11.5 C 6.82 g/m*3 11.5 C 0 km/h
683 12-11-2010 16:37:02 11.7 C 6.9 g/m*3 11.7 C 0 km/h
684 12-11-2010 16:49:02 11.3 C 6.83 g/m*3 11.3 C 0 km/h
685 12-11-2010 17:01:02 11.1 C 6.95 g/m*3 11.1 C 0 km/h
686 12-11-2010 17:13:03 11 C 7.11 g/m*3 11 C 0 km/h
687 12-11-2010 17:25:01 11.3 C 7.34 g/m*3 11.3 C 0 km/h
688 12-11-2010 17:37:02 11.2 C 7.3 g/m*3 11.2 C 0 km/h
689 12-11-2010 17:49:01 11.2 C 7.3 g/m*3 11.2 C 0 km/h
690 12-11-2010 18:01:02 10.8 C 7.41 g/m*3 10.8 C 0 km/h
691 12-11-2010 18:13:02 10.6 C 7.61 g/m*3 10.6 C 0 km/h
692 12-11-2010 18:25:02 10.5 C 7.86 g/m*3 10.5 C 0 km/h
693 12-11-2010 18:37:02 10.3 C 7.85 g/m*3 10.3 C 0 km/h
694 12-11-2010 18:49:02 10.2 C 7.9 g/m*3 10.2 C 0 km/h
695 12-11-2010 19:01:02 10.5 C 8.15 g/m*3 10.5 C 0 km/h
696 12-11-2010 19:13:02 10.2 C 8.09 g/m*3 10.2 C 0 km/h
697 12-11-2010 19:25:02 10.3 C 8.24 g/m*3 10.3 C 0 km/h
698 12-11-2010 19:37:01 10.6 C 8.39 g/m*3 10.6 C 0 km/h
699 12-11-2010 19:49:02 11 C 8.61 g/m*3 11 C 0 km/h
700 12-11-2010 20:01:02 11.3 C 8.67 g/m*3 11.3 C 0 km/h
Sensor: Nr:Datum:Temp:Abs-Feuchte:Windchill:Wind:
Aussen-T/F 701 12-11-2010 20:13:02 11.6 C 8.83 g/m*3 11.6 C 0 km/h
702 12-11-2010 20:25:02 11.5 C 8.68 g/m*3 11.5 C 0 km/h
703 12-11-2010 20:37:02 11.5 C 8.78 g/m*3 11.5 C 0 km/h
704 12-11-2010 20:49:01 11.7 C 8.89 g/m*3 11.7 C 0 km/h
705 12-11-2010 21:01:02 11.9 C 9.11 g/m*3 11.9 C 0 km/h
706 12-11-2010 21:13:02 11.8 C 9.05 g/m*3 11.8 C 0 km/h
707 12-11-2010 21:25:02 11.8 C 9.16 g/m*3 11.8 C 0 km/h
708 12-11-2010 21:37:02 12.5 C 9.46 g/m*3 12.5 C 0 km/h
709 12-11-2010 21:49:02 12.8 C 9.63 g/m*3 12.8 C 0 km/h
710 12-11-2010 22:01:02 12.8 C 9.41 g/m*3 12.8 C 0 km/h
711 12-11-2010 22:13:02 13.2 C 9.42 g/m*3 13.2 C 0 km/h
712 12-11-2010 22:25:02 13.4 C 9.3 g/m*3 13.4 C 0 km/h
713 12-11-2010 22:37:02 13.4 C 8.95 g/m*3 13.4 C 0 km/h
714 12-11-2010 22:49:02 13.7 C 9 g/m*3 13.7 C 0 km/h
715 12-11-2010 23:01:02 13.7 C 8.76 g/m*3 13.7 C 0 km/h
716 12-11-2010 23:13:02 13.8 C 8.82 g/m*3 13.8 C 0 km/h
717 12-11-2010 23:25:02 13.8 C 8.7 g/m*3 13.8 C 0 km/h
718 12-11-2010 23:37:02 14 C 8.56 g/m*3 14 C 0 km/h
719 12-11-2010 23:49:02 14.1 C 8.62 g/m*3 14.1 C 0 km/h
720 13-11-2010 00:01:02 14 C 8.68 g/m*3 14 C 0 km/h
721 13-11-2010 00:13:02 13.9 C 8.75 g/m*3 13.9 C 0 km/h
722 13-11-2010 00:25:02 13.8 C 8.94 g/m*3 13.8 C 0 km/h
723 13-11-2010 00:37:03 13.6 C 8.94 g/m*3 13.6 C 0 km/h
724 13-11-2010 00:49:02 13.8 C 8.94 g/m*3 13.8 C 0 km/h
725 13-11-2010 01:01:02 13.8 C 9.06 g/m*3 13.8 C 0 km/h
Sensor: Nr:Datum:Temp:Abs-Feuchte:Windchill:Wind:
Aussen-T/F 726 13-11-2010 01:13:02 13.8 C 9.17 g/m*3 13.8 C 0 km/h
727 13-11-2010 01:25:02 14 C 9.05 g/m*3 14 C 0 km/h
728 13-11-2010 01:37:02 14 C 8.93 g/m*3 14 C 0 km/h
729 13-11-2010 01:49:02 13.7 C 9.12 g/m*3 13.7 C 0 km/h
730 13-11-2010 02:01:02 13.8 C 9.29 g/m*3 13.8 C 0 km/h
731 13-11-2010 02:13:02 13.6 C 9.18 g/m*3 13.6 C 0 km/h
732 13-11-2010 02:25:02 14 C 9.29 g/m*3 14 C 0 km/h
733 13-11-2010 02:37:02 13.9 C 9.35 g/m*3 13.9 C 0 km/h
734 13-11-2010 02:49:01 13.6 C 9.3 g/m*3 13.6 C 0 km/h
735 13-11-2010 03:01:01 13.9 C 9.47 g/m*3 13.9 C 0 km/h
736 13-11-2010 03:13:01 14 C 9.41 g/m*3 14 C 0 km/h
737 13-11-2010 03:25:02 14.2 C 9.28 g/m*3 14.2 C 0 km/h
738 13-11-2010 03:37:01 14.5 C 9.2 g/m*3 14.5 C 0 km/h
739 13-11-2010 03:49:01 14.4 C 9.27 g/m*3 14.4 C 0 km/h
740 13-11-2010 04:01:02 14.3 C 9.21 g/m*3 14.3 C 0 km/h
741 13-11-2010 04:13:02 14.3 C 9.21 g/m*3 14.3 C 0 km/h
742 13-11-2010 04:25:01 13.9 C 9.23 g/m*3 13.9 C 0 km/h
743 13-11-2010 04:37:01 13.9 C 9.35 g/m*3 13.9 C 0 km/h
744 13-11-2010 04:49:01 14.3 C 9.21 g/m*3 14.3 C 0 km/h
745 13-11-2010 05:01:01 14.5 C 9.2 g/m*3 14.5 C 0 km/h
746 13-11-2010 05:13:01 14.4 C 9.15 g/m*3 14.4 C 0 km/h
747 13-11-2010 05:25:01 14.4 C 9.02 g/m*3 14.4 C 0 km/h
748 13-11-2010 05:37:01 14.6 C 9.13 g/m*3 14.6 C 0 km/h
749 13-11-2010 05:49:01 14.6 C 9.01 g/m*3 14.6 C 0 km/h
750 13-11-2010 06:01:01 14.5 C 8.95 g/m*3 14.5 C 0 km/h
Sensor: Nr:Datum:Temp:Abs-Feuchte:Windchill:Wind:
Aussen-T/F 751 13-11-2010 06:13:01 14.7 C 9.07 g/m*3 14.7 C 0 km/h
752 13-11-2010 06:25:02 14.6 C 9.13 g/m*3 14.6 C 0 km/h
753 13-11-2010 06:37:01 14.7 C 9.07 g/m*3 14.7 C 0 km/h
754 13-11-2010 06:49:02 14.6 C 9.01 g/m*3 14.6 C 0 km/h
755 13-11-2010 07:01:01 14.7 C 9.07 g/m*3 14.7 C 0 km/h
756 13-11-2010 07:13:01 14.8 C 8.99 g/m*3 14.8 C 0 km/h
757 13-11-2010 07:25:01 14.7 C 8.94 g/m*3 14.7 C 0 km/h
758 13-11-2010 07:37:01 14.7 C 8.94 g/m*3 14.7 C 0 km/h
759 13-11-2010 07:49:01 14.7 C 9.07 g/m*3 14.7 C 0 km/h
760 13-11-2010 08:01:01 14.6 C 9.01 g/m*3 14.6 C 0 km/h
761 13-11-2010 08:13:01 14.7 C 9.07 g/m*3 14.7 C 0 km/h
762 13-11-2010 08:25:01 14.9 C 8.92 g/m*3 14.9 C 0 km/h
763 13-11-2010 08:37:02 14.7 C 8.94 g/m*3 14.7 C 0 km/h
764 13-11-2010 08:49:01 14.7 C 9.07 g/m*3 14.7 C 0 km/h
765 13-11-2010 09:01:02 14.2 C 9.04 g/m*3 14.2 C 0 km/h
766 13-11-2010 09:13:02 14.1 C 9.22 g/m*3 14.1 C 0 km/h
767 13-11-2010 09:25:01 14.2 C 9.16 g/m*3 14.2 C 0 km/h
768 13-11-2010 09:37:01 14.2 C 9.16 g/m*3 14.2 C 0 km/h
769 13-11-2010 09:49:01 14.2 C 9.16 g/m*3 14.2 C 0 km/h
770 13-11-2010 10:01:02 14 C 9.05 g/m*3 14 C 0 km/h
771 13-11-2010 10:13:02 14 C 9.29 g/m*3 14 C 0 km/h
772 13-11-2010 10:25:01 14.2 C 9.28 g/m*3 14.2 C 0 km/h
773 13-11-2010 10:37:01 14.6 C 9.26 g/m*3 14.6 C 0 km/h
774 13-11-2010 10:49:01 14.8 C 9.25 g/m*3 14.8 C 0 km/h
775 13-11-2010 11:01:01 14.7 C 9.07 g/m*3 14.7 C 0 km/h
Sensor: Nr:Datum:Temp:Abs-Feuchte:Windchill:Wind:
Aussen-T/F 776 13-11-2010 11:13:01 14.8 C 9.12 g/m*3 14.8 C 0 km/h
777 13-11-2010 11:25:02 14.6 C 9.01 g/m*3 14.6 C 0 km/h
778 13-11-2010 11:37:01 14.7 C 9.07 g/m*3 14.7 C 0 km/h
779 13-11-2010 11:49:02 15 C 8.72 g/m*3 15 C 0 km/h
780 13-11-2010 12:01:01 15.2 C 8.7 g/m*3 15.2 C 0 km/h
781 13-11-2010 12:13:01 14.8 C 8.74 g/m*3 14.8 C 0 km/h
782 13-11-2010 12:25:02 14.6 C 8.88 g/m*3 14.6 C 0 km/h
783 13-11-2010 12:37:01 14.7 C 8.94 g/m*3 14.7 C 0 km/h
784 13-11-2010 12:49:02 14.7 C 8.94 g/m*3 14.7 C 0 km/h
785 13-11-2010 13:01:01 14.5 C 8.95 g/m*3 14.5 C 0 km/h
786 13-11-2010 13:13:01 14.8 C 8.87 g/m*3 14.8 C 0 km/h
787 13-11-2010 13:25:01 15.1 C 8.77 g/m*3 15.1 C 0 km/h
788 13-11-2010 13:37:02 14.9 C 8.79 g/m*3 14.9 C 0 km/h
789 13-11-2010 13:49:01 14.5 C 8.83 g/m*3 14.5 C 0 km/h
790 13-11-2010 14:01:02 14.7 C 8.81 g/m*3 14.7 C 0 km/h
791 13-11-2010 14:13:02 14.8 C 8.61 g/m*3 14.8 C 0 km/h
792 13-11-2010 14:25:01 14.9 C 8.67 g/m*3 14.9 C 0 km/h
793 13-11-2010 14:37:02 14.8 C 8.61 g/m*3 14.8 C 0 km/h
794 13-11-2010 14:49:01 14.7 C 8.69 g/m*3 14.7 C 0 km/h
795 13-11-2010 15:01:02 14.8 C 8.61 g/m*3 14.8 C 0 km/h
796 13-11-2010 15:13:02 14.7 C 8.56 g/m*3 14.7 C 0 km/h
797 13-11-2010 15:25:01 14.7 C 8.56 g/m*3 14.7 C 0 km/h
798 13-11-2010 15:37:02 15 C 8.46 g/m*3 15 C 0 km/h
799 13-11-2010 15:49:01 14.9 C 8.54 g/m*3 14.9 C 0 km/h
800 13-11-2010 16:01:01 14.7 C 8.56 g/m*3 14.7 C 0 km/h
Sensor: Nr:Datum:Temp:Abs-Feuchte:Windchill:Wind:
Aussen-T/F 801 13-11-2010 16:13:01 14.6 C 8.76 g/m*3 14.6 C 0 km/h
802 13-11-2010 16:25:02 14.7 C 8.69 g/m*3 14.7 C 0 km/h
803 13-11-2010 16:37:01 14.7 C 8.69 g/m*3 14.7 C 0 km/h
804 13-11-2010 16:49:02 14.7 C 8.69 g/m*3 14.7 C 0 km/h
805 13-11-2010 17:01:01 14.6 C 8.63 g/m*3 14.6 C 0 km/h
806 13-11-2010 17:13:01 14.3 C 8.72 g/m*3 14.3 C 0 km/h
807 13-11-2010 17:25:01 14 C 8.81 g/m*3 14 C 0 km/h
808 13-11-2010 17:37:01 14 C 8.81 g/m*3 14 C 0 km/h
809 13-11-2010 17:49:01 14.4 C 8.78 g/m*3 14.4 C 0 km/h
810 13-11-2010 18:01:01 14.7 C 8.81 g/m*3 14.7 C 0 km/h
811 13-11-2010 18:13:01 14.5 C 8.71 g/m*3 14.5 C 0 km/h
812 13-11-2010 18:25:01 14.5 C 8.71 g/m*3 14.5 C 0 km/h
813 13-11-2010 18:37:02 14.7 C 8.69 g/m*3 14.7 C 0 km/h
814 13-11-2010 18:49:01 15 C 8.59 g/m*3 15 C 0 km/h
815 13-11-2010 19:01:02 14.7 C 8.56 g/m*3 14.7 C 0 km/h
816 13-11-2010 19:13:02 14.8 C 8.61 g/m*3 14.8 C 0 km/h
817 13-11-2010 19:25:01 14.9 C 8.54 g/m*3 14.9 C 0 km/h
818 13-11-2010 19:37:02 15.1 C 8.51 g/m*3 15.1 C 0 km/h
819 13-11-2010 19:49:01 15.2 C 8.31 g/m*3 15.2 C 0 km/h
820 13-11-2010 20:01:02 15.3 C 8.23 g/m*3 15.3 C 0 km/h
821 13-11-2010 20:13:02 15.2 C 8.18 g/m*3 15.2 C 0 km/h
822 13-11-2010 20:25:01 15.1 C 8.26 g/m*3 15.1 C 0 km/h
823 13-11-2010 20:37:02 14.8 C 8.36 g/m*3 14.8 C 0 km/h
824 13-11-2010 20:49:01 14.6 C 8.38 g/m*3 14.6 C 0 km/h
825 13-11-2010 21:01:02 14.4 C 8.53 g/m*3 14.4 C 0 km/h
Sensor: Nr:Datum:Temp:Abs-Feuchte:Windchill:Wind:
Aussen-T/F 826 13-11-2010 21:13:02 14.3 C 8.35 g/m*3 14.3 C 0 km/h
827 13-11-2010 21:25:01 14.5 C 8.46 g/m*3 14.5 C 0 km/h
828 13-11-2010 21:37:01 14.5 C 8.33 g/m*3 14.5 C 0 km/h
829 13-11-2010 21:49:01 14.9 C 8.28 g/m*3 14.9 C 0 km/h
830 13-11-2010 22:01:02 14.8 C 8.23 g/m*3 14.8 C 0 km/h
831 13-11-2010 22:13:02 14.8 C 8.23 g/m*3 14.8 C 0 km/h
832 13-11-2010 22:25:01 15.1 C 8 g/m*3 15.1 C 0 km/h
833 13-11-2010 22:37:02 14.8 C 8.11 g/m*3 14.8 C 0 km/h
834 13-11-2010 22:49:01 14.8 C 7.98 g/m*3 14.8 C 0 km/h
835 13-11-2010 23:02:07 14.7 C 8.06 g/m*3 14.7 C 0 km/h
836 13-11-2010 23:14:07 15.2 C 7.92 g/m*3 15.2 C 0 km/h
837 13-11-2010 23:26:07 14.8 C 8.11 g/m*3 14.8 C 0 km/h
838 13-11-2010 23:38:07 14.6 C 8.01 g/m*3 14.6 C 0 km/h
839 13-11-2010 23:50:07 14.4 C 8.16 g/m*3 14.4 C 0 km/h

Legende:
   Min
   Max


Maximal/Minimal-Werte vom 07.11.2010 - 13.11.2010

Sensor Min Max Avg
Temp
(Aussen-T/F)
1.1 °C
08-11-2010  18:57:01
15.3 °C
13-11-2010  20:01:02
8.1 °C
Abs-Feuchte
(Aussen-T/F)
3.72 g/m*3
11-11-2010  11:24:02
9.63 g/m*3
12-11-2010  21:49:02
6.65 g/m*3
Windchill
(Aussen-T/F)
1.1 C
08-11-2010  18:57:01
15.3 C
13-11-2010  20:01:02
8.09 C

Die Daten stammen von einer Davis Vantage Pro 2 Wetter-Station und werden unter Linux mit der Software wview2wettercgi und aufbereitet. Alle Angaben erfolgen ohne Gewähr für ihre Vollständigkeit oder Richtigkeit.
Kontakt: Rainer Krienke krienke@uni-koblenz.de . Meine Webseiten an der Uni Koblenz oder privat.
Version: $Revision: 0.78 $